Search for airport 
image banner adimage banner adimage banner ad
image banner ad

34CN - Bonanza Hills

Located in Snelling, United States

ICAO - 34CN, IATA -

Data provided by Airmate  

General information

Coordinates: N37°31'25" W120°23'52"
Elevation is 295 feet MSL.
Magnetic variation is 15° East
View others Airports in California

Operational data

Special qualification required
Current time UTC:
Current local time:
Weather at : KMER - Castle ( 22 km )
METAR: KMER 211315Z AUTO 33006KT 10SM CLR 17/13 A2985 RMK AO1
TAF: KMER 211120Z 2112/2212 32007KT P6SM SKC
View NOTAMs / SUP AIP / TFR affecting this airport [VIEW]
Communications frequencies: [VIEW]

Runways:

RWY identifierQFULength (ft)Width (ft)SurfaceLDA (ft)
074100100OTHER
254100100OTHER

Airport contact information

Address: Snelling United States

Satellite view of 34CN